sensor_id;sensor_type;location;lat;lon;timestamp;P1;durP1;ratioP1;P2;durP2;ratioP2
47337;SDS011;33069;51.970;5.892;2023-04-03T00:01:56;5.60;;;3.20;;
47337;SDS011;33069;51.970;5.892;2023-04-03T00:04:22;10.90;;;3.35;;
47337;SDS011;33069;51.970;5.892;2023-04-03T00:06:47;5.55;;;2.90;;
47337;SDS011;33069;51.970;5.892;2023-04-03T00:09:13;3.75;;;2.80;;
47337;SDS011;33069;51.970;5.892;2023-04-03T00:11:38;7.47;;;2.70;;
47337;SDS011;33069;51.970;5.892;2023-04-03T00:16:58;6.22;;;2.80;;
47337;SDS011;33069;51.970;5.892;2023-04-03T00:19:23;4.90;;;2.60;;
47337;SDS011;33069;51.970;5.892;2023-04-03T00:21:49;6.72;;;2.88;;
47337;SDS011;33069;51.970;5.892;2023-04-03T00:24:15;7.47;;;2.88;;
47337;SDS011;33069;51.970;5.892;2023-04-03T00:26:41;5.38;;;2.60;;
47337;SDS011;33069;51.970;5.892;2023-04-03T00:29:07;7.53;;;3.08;;
47337;SDS011;33069;51.970;5.892;2023-04-03T00:31:32;7.25;;;2.80;;
47337;SDS011;33069;51.970;5.892;2023-04-03T00:33:58;9.40;;;2.90;;
47337;SDS011;33069;51.970;5.892;2023-04-03T00:36:24;5.57;;;3.13;;
47337;SDS011;33069;51.970;5.892;2023-04-03T00:38:50;4.13;;;2.53;;
47337;SDS011;33069;51.970;5.892;2023-04-03T00:41:16;6.65;;;2.50;;
47337;SDS011;33069;51.970;5.892;2023-04-03T00:43:42;6.88;;;2.75;;
47337;SDS011;33069;51.970;5.892;2023-04-03T00:46:07;5.03;;;2.70;;
47337;SDS011;33069;51.970;5.892;2023-04-03T00:50:59;6.35;;;2.88;;
47337;SDS011;33069;51.970;5.892;2023-04-03T00:53:27;6.07;;;2.78;;
47337;SDS011;33069;51.970;5.892;2023-04-03T00:58:28;6.80;;;2.80;;
47337;SDS011;33069;51.970;5.892;2023-04-03T01:01:03;6.50;;;2.58;;
47337;SDS011;33069;51.970;5.892;2023-04-03T01:03:33;6.03;;;2.80;;
47337;SDS011;33069;51.970;5.892;2023-04-03T01:05:59;5.18;;;2.85;;
47337;SDS011;33069;51.970;5.892;2023-04-03T01:08:25;7.57;;;2.65;;
47337;SDS011;33069;51.970;5.892;2023-04-03T01:10:51;7.07;;;2.55;;
47337;SDS011;33069;51.970;5.892;2023-04-03T01:16:09;5.15;;;2.65;;
47337;SDS011;33069;51.970;5.892;2023-04-03T01:18:36;8.35;;;2.83;;
47337;SDS011;33069;51.970;5.892;2023-04-03T01:26:20;6.47;;;2.63;;
47337;SDS011;33069;51.970;5.892;2023-04-03T01:28:46;7.03;;;2.55;;
47337;SDS011;33069;51.970;5.892;2023-04-03T01:33:38;8.02;;;2.80;;
47337;SDS011;33069;51.970;5.892;2023-04-03T01:36:04;7.35;;;3.08;;
47337;SDS011;33069;51.970;5.892;2023-04-03T01:38:31;5.82;;;2.67;;
47337;SDS011;33069;51.970;5.892;2023-04-03T01:40:56;10.45;;;2.90;;
47337;SDS011;33069;51.970;5.892;2023-04-03T01:43:22;6.45;;;2.63;;
47337;SDS011;33069;51.970;5.892;2023-04-03T01:45:48;6.18;;;2.58;;
47337;SDS011;33069;51.970;5.892;2023-04-03T01:48:15;8.05;;;2.83;;
47337;SDS011;33069;51.970;5.892;2023-04-03T01:50:41;7.20;;;2.63;;
47337;SDS011;33069;51.970;5.892;2023-04-03T01:53:06;9.25;;;2.55;;
47337;SDS011;33069;51.970;5.892;2023-04-03T01:55:32;5.65;;;2.40;;
47337;SDS011;33069;51.970;5.892;2023-04-03T01:57:58;5.68;;;2.75;;
47337;SDS011;33069;51.970;5.892;2023-04-03T02:00:24;8.88;;;3.22;;
47337;SDS011;33069;51.970;5.892;2023-04-03T02:03:08;4.80;;;2.60;;
47337;SDS011;33069;51.970;5.892;2023-04-03T02:05:34;6.20;;;2.40;;
47337;SDS011;33069;51.970;5.892;2023-04-03T02:08:00;5.03;;;2.30;;
47337;SDS011;33069;51.970;5.892;2023-04-03T02:10:26;8.02;;;2.80;;
47337;SDS011;33069;51.970;5.892;2023-04-03T02:12:52;12.27;;;3.22;;
47337;SDS011;33069;51.970;5.892;2023-04-03T02:15:17;7.57;;;2.75;;
47337;SDS011;33069;51.970;5.892;2023-04-03T02:17:43;3.75;;;2.20;;
47337;SDS011;33069;51.970;5.892;2023-04-03T02:20:09;7.32;;;2.88;;
47337;SDS011;33069;51.970;5.892;2023-04-03T02:22:35;5.88;;;2.72;;
47337;SDS011;33069;51.970;5.892;2023-04-03T02:25:01;5.30;;;2.88;;
47337;SDS011;33069;51.970;5.892;2023-04-03T02:27:27;8.00;;;2.70;;
47337;SDS011;33069;51.970;5.892;2023-04-03T02:29:53;6.72;;;2.92;;
47337;SDS011;33069;51.970;5.892;2023-04-03T02:32:18;8.63;;;3.05;;
47337;SDS011;33069;51.970;5.892;2023-04-03T02:34:44;6.93;;;2.90;;
47337;SDS011;33069;51.970;5.892;2023-04-03T02:37:10;13.38;;;2.83;;
47337;SDS011;33069;51.970;5.892;2023-04-03T02:39:36;5.20;;;2.47;;
47337;SDS011;33069;51.970;5.892;2023-04-03T02:42:02;7.97;;;2.70;;
47337;SDS011;33069;51.970;5.892;2023-04-03T02:44:27;5.57;;;2.45;;
47337;SDS011;33069;51.970;5.892;2023-04-03T02:46:53;8.88;;;3.22;;
47337;SDS011;33069;51.970;5.892;2023-04-03T02:49:19;6.85;;;2.47;;
47337;SDS011;33069;51.970;5.892;2023-04-03T02:51:45;7.97;;;2.65;;
47337;SDS011;33069;51.970;5.892;2023-04-03T02:54:11;5.40;;;2.72;;
47337;SDS011;33069;51.970;5.892;2023-04-03T02:56:36;8.45;;;2.85;;
47337;SDS011;33069;51.970;5.892;2023-04-03T02:59:02;4.32;;;3.05;;
47337;SDS011;33069;51.970;5.892;2023-04-03T03:01:28;6.50;;;2.90;;
47337;SDS011;33069;51.970;5.892;2023-04-03T03:03:56;6.43;;;2.58;;
47337;SDS011;33069;51.970;5.892;2023-04-03T03:06:23;8.20;;;3.08;;
47337;SDS011;33069;51.970;5.892;2023-04-03T03:08:48;7.30;;;2.50;;
47337;SDS011;33069;51.970;5.892;2023-04-03T03:11:14;7.10;;;2.45;;
47337;SDS011;33069;51.970;5.892;2023-04-03T03:13:40;10.73;;;2.53;;
47337;SDS011;33069;51.970;5.892;2023-04-03T03:16:06;7.65;;;3.45;;
47337;SDS011;33069;51.970;5.892;2023-04-03T03:18:32;8.55;;;2.90;;
47337;SDS011;33069;51.970;5.892;2023-04-03T03:20:59;9.23;;;2.83;;
47337;SDS011;33069;51.970;5.892;2023-04-03T03:23:26;8.88;;;2.80;;
47337;SDS011;33069;51.970;5.892;2023-04-03T03:26:00;6.15;;;2.95;;
47337;SDS011;33069;51.970;5.892;2023-04-03T03:28:39;8.45;;;2.92;;
47337;SDS011;33069;51.970;5.892;2023-04-03T03:31:05;8.88;;;3.05;;
47337;SDS011;33069;51.970;5.892;2023-04-03T03:33:32;11.02;;;3.13;;
47337;SDS011;33069;51.970;5.892;2023-04-03T03:35:58;11.63;;;3.42;;
47337;SDS011;33069;51.970;5.892;2023-04-03T03:38:24;12.88;;;2.97;;
47337;SDS011;33069;51.970;5.892;2023-04-03T03:40:50;9.00;;;2.60;;
47337;SDS011;33069;51.970;5.892;2023-04-03T03:43:16;11.48;;;3.00;;
47337;SDS011;33069;51.970;5.892;2023-04-03T03:45:43;7.82;;;2.88;;
47337;SDS011;33069;51.970;5.892;2023-04-03T03:48:10;10.05;;;3.00;;
47337;SDS011;33069;51.970;5.892;2023-04-03T03:50:36;8.30;;;3.50;;
47337;SDS011;33069;51.970;5.892;2023-04-03T03:53:02;13.02;;;3.35;;
47337;SDS011;33069;51.970;5.892;2023-04-03T03:55:28;5.85;;;3.03;;
47337;SDS011;33069;51.970;5.892;2023-04-03T03:57:53;9.38;;;2.85;;
47337;SDS011;33069;51.970;5.892;2023-04-03T04:00:19;9.07;;;2.55;;
47337;SDS011;33069;51.970;5.892;2023-04-03T04:02:45;8.05;;;2.78;;
47337;SDS011;33069;51.970;5.892;2023-04-03T04:08:05;8.73;;;2.95;;
47337;SDS011;33069;51.970;5.892;2023-04-03T04:10:31;10.18;;;3.22;;
47337;SDS011;33069;51.970;5.892;2023-04-03T04:12:56;6.05;;;2.78;;
47337;SDS011;33069;51.970;5.892;2023-04-03T04:15:22;8.73;;;3.10;;
47337;SDS011;33069;51.970;5.892;2023-04-03T04:17:49;7.97;;;2.63;;
47337;SDS011;33069;51.970;5.892;2023-04-03T04:20:14;6.40;;;2.70;;
47337;SDS011;33069;51.970;5.892;2023-04-03T04:22:40;6.95;;;2.70;;
47337;SDS011;33069;51.970;5.892;2023-04-03T04:25:06;12.40;;;3.22;;
47337;SDS011;33069;51.970;5.892;2023-04-03T04:27:32;10.30;;;4.25;;
47337;SDS011;33069;51.970;5.892;2023-04-03T04:29:57;7.40;;;2.63;;
47337;SDS011;33069;51.970;5.892;2023-04-03T04:32:23;10.15;;;3.13;;
47337;SDS011;33069;51.970;5.892;2023-04-03T04:34:49;7.35;;;2.97;;
47337;SDS011;33069;51.970;5.892;2023-04-03T04:37:15;5.55;;;2.50;;
47337;SDS011;33069;51.970;5.892;2023-04-03T04:39:40;10.45;;;3.63;;
47337;SDS011;33069;51.970;5.892;2023-04-03T04:42:06;10.65;;;3.42;;
47337;SDS011;33069;51.970;5.892;2023-04-03T04:44:37;11.88;;;3.10;;
47337;SDS011;33069;51.970;5.892;2023-04-03T04:47:03;12.52;;;3.42;;
47337;SDS011;33069;51.970;5.892;2023-04-03T04:49:29;7.07;;;2.92;;
47337;SDS011;33069;51.970;5.892;2023-04-03T04:51:55;10.27;;;3.00;;
47337;SDS011;33069;51.970;5.892;2023-04-03T04:54:21;6.75;;;2.70;;
47337;SDS011;33069;51.970;5.892;2023-04-03T04:56:46;11.73;;;3.28;;
47337;SDS011;33069;51.970;5.892;2023-04-03T04:59:12;8.48;;;3.00;;
47337;SDS011;33069;51.970;5.892;2023-04-03T05:01:38;13.32;;;3.05;;
47337;SDS011;33069;51.970;5.892;2023-04-03T05:07:17;10.80;;;3.13;;
47337;SDS011;33069;51.970;5.892;2023-04-03T05:09:43;8.43;;;3.20;;
47337;SDS011;33069;51.970;5.892;2023-04-03T05:12:09;7.55;;;2.75;;
47337;SDS011;33069;51.970;5.892;2023-04-03T05:14:35;9.65;;;3.10;;
47337;SDS011;33069;51.970;5.892;2023-04-03T05:17:00;6.93;;;2.30;;
47337;SDS011;33069;51.970;5.892;2023-04-03T05:19:26;9.15;;;3.50;;
47337;SDS011;33069;51.970;5.892;2023-04-03T05:21:52;11.98;;;3.05;;
47337;SDS011;33069;51.970;5.892;2023-04-03T05:24:17;12.02;;;3.78;;
47337;SDS011;33069;51.970;5.892;2023-04-03T05:26:43;9.85;;;2.85;;
47337;SDS011;33069;51.970;5.892;2023-04-03T05:29:09;11.63;;;3.13;;
47337;SDS011;33069;51.970;5.892;2023-04-03T05:31:35;9.73;;;2.95;;
47337;SDS011;33069;51.970;5.892;2023-04-03T05:34:01;8.52;;;2.58;;
47337;SDS011;33069;51.970;5.892;2023-04-03T05:36:27;11.70;;;3.35;;
47337;SDS011;33069;51.970;5.892;2023-04-03T05:38:53;8.38;;;2.78;;
47337;SDS011;33069;51.970;5.892;2023-04-03T05:44:27;11.35;;;3.72;;
47337;SDS011;33069;51.970;5.892;2023-04-03T05:46:53;8.23;;;3.03;;
47337;SDS011;33069;51.970;5.892;2023-04-03T05:49:19;10.02;;;3.58;;
47337;SDS011;33069;51.970;5.892;2023-04-03T05:51:44;10.00;;;3.22;;
47337;SDS011;33069;51.970;5.892;2023-04-03T05:54:16;7.22;;;2.75;;
47337;SDS011;33069;51.970;5.892;2023-04-03T05:56:48;12.90;;;3.20;;
47337;SDS011;33069;51.970;5.892;2023-04-03T05:59:15;7.53;;;2.88;;
47337;SDS011;33069;51.970;5.892;2023-04-03T06:01:42;9.40;;;3.05;;
47337;SDS011;33069;51.970;5.892;2023-04-03T06:04:08;7.65;;;2.90;;
47337;SDS011;33069;51.970;5.892;2023-04-03T06:06:51;8.90;;;2.72;;
47337;SDS011;33069;51.970;5.892;2023-04-03T06:09:18;9.40;;;3.00;;
47337;SDS011;33069;51.970;5.892;2023-04-03T06:11:45;17.98;;;3.38;;
47337;SDS011;33069;51.970;5.892;2023-04-03T06:14:11;13.52;;;3.72;;
47337;SDS011;33069;51.970;5.892;2023-04-03T06:16:37;9.77;;;3.15;;
47337;SDS011;33069;51.970;5.892;2023-04-03T06:19:04;10.18;;;3.15;;
47337;SDS011;33069;51.970;5.892;2023-04-03T06:21:30;7.25;;;3.10;;
47337;SDS011;33069;51.970;5.892;2023-04-03T06:23:56;9.23;;;3.47;;
47337;SDS011;33069;51.970;5.892;2023-04-03T06:26:22;7.63;;;3.10;;
47337;SDS011;33069;51.970;5.892;2023-04-03T06:28:48;12.23;;;3.50;;
47337;SDS011;33069;51.970;5.892;2023-04-03T06:31:14;8.75;;;3.13;;
47337;SDS011;33069;51.970;5.892;2023-04-03T06:33:40;7.10;;;2.67;;
47337;SDS011;33069;51.970;5.892;2023-04-03T06:36:05;9.23;;;3.65;;
47337;SDS011;33069;51.970;5.892;2023-04-03T06:38:33;8.77;;;3.10;;
47337;SDS011;33069;51.970;5.892;2023-04-03T06:40:59;9.50;;;2.90;;
47337;SDS011;33069;51.970;5.892;2023-04-03T06:43:25;7.32;;;2.75;;
47337;SDS011;33069;51.970;5.892;2023-04-03T06:45:51;12.30;;;2.90;;
47337;SDS011;33069;51.970;5.892;2023-04-03T06:48:17;6.88;;;3.13;;
47337;SDS011;33069;51.970;5.892;2023-04-03T06:50:43;8.10;;;3.22;;
47337;SDS011;33069;51.970;5.892;2023-04-03T06:53:09;7.15;;;3.08;;
47337;SDS011;33069;51.970;5.892;2023-04-03T06:55:34;10.32;;;3.30;;
47337;SDS011;33069;51.970;5.892;2023-04-03T06:58:01;10.25;;;2.80;;
47337;SDS011;33069;51.970;5.892;2023-04-03T07:00:28;8.77;;;4.00;;
47337;SDS011;33069;51.970;5.892;2023-04-03T07:02:55;9.95;;;3.13;;
47337;SDS011;33069;51.970;5.892;2023-04-03T07:05:22;10.52;;;3.60;;
47337;SDS011;33069;51.970;5.892;2023-04-03T07:07:48;11.25;;;3.78;;
47337;SDS011;33069;51.970;5.892;2023-04-03T07:10:15;11.93;;;3.42;;
47337;SDS011;33069;51.970;5.892;2023-04-03T07:12:41;7.40;;;3.15;;
47337;SDS011;33069;51.970;5.892;2023-04-03T07:15:07;6.97;;;3.30;;
47337;SDS011;33069;51.970;5.892;2023-04-03T07:17:33;13.43;;;4.18;;
47337;SDS011;33069;51.970;5.892;2023-04-03T07:19:59;6.63;;;2.95;;
47337;SDS011;33069;51.970;5.892;2023-04-03T07:22:25;7.93;;;3.17;;
47337;SDS011;33069;51.970;5.892;2023-04-03T07:24:51;7.95;;;3.53;;
47337;SDS011;33069;51.970;5.892;2023-04-03T07:27:16;11.60;;;3.35;;
47337;SDS011;33069;51.970;5.892;2023-04-03T07:29:42;8.75;;;3.42;;
47337;SDS011;33069;51.970;5.892;2023-04-03T07:32:09;6.85;;;3.65;;
47337;SDS011;33069;51.970;5.892;2023-04-03T07:34:35;12.63;;;3.92;;
47337;SDS011;33069;51.970;5.892;2023-04-03T07:37:01;8.60;;;3.28;;
47337;SDS011;33069;51.970;5.892;2023-04-03T07:39:27;6.78;;;3.20;;
47337;SDS011;33069;51.970;5.892;2023-04-03T07:41:53;11.27;;;4.15;;
47337;SDS011;33069;51.970;5.892;2023-04-03T07:44:21;9.65;;;3.63;;
47337;SDS011;33069;51.970;5.892;2023-04-03T07:46:46;6.20;;;3.80;;
47337;SDS011;33069;51.970;5.892;2023-04-03T07:49:13;9.10;;;4.07;;
47337;SDS011;33069;51.970;5.892;2023-04-03T07:51:39;12.40;;;4.05;;
47337;SDS011;33069;51.970;5.892;2023-04-03T07:54:05;10.43;;;4.30;;
47337;SDS011;33069;51.970;5.892;2023-04-03T07:56:31;7.57;;;3.72;;
47337;SDS011;33069;51.970;5.892;2023-04-03T07:58:57;7.60;;;4.63;;
47337;SDS011;33069;51.970;5.892;2023-04-03T08:01:23;9.35;;;4.07;;
47337;SDS011;33069;51.970;5.892;2023-04-03T08:03:48;9.20;;;3.90;;
47337;SDS011;33069;51.970;5.892;2023-04-03T08:06:14;9.13;;;3.90;;
47337;SDS011;33069;51.970;5.892;2023-04-03T08:08:40;5.80;;;3.58;;
47337;SDS011;33069;51.970;5.892;2023-04-03T08:11:06;7.30;;;4.07;;
47337;SDS011;33069;51.970;5.892;2023-04-03T08:13:33;8.20;;;3.92;;
47337;SDS011;33069;51.970;5.892;2023-04-03T08:16:11;9.60;;;4.40;;
47337;SDS011;33069;51.970;5.892;2023-04-03T08:18:41;13.35;;;4.80;;
47337;SDS011;33069;51.970;5.892;2023-04-03T08:21:07;6.22;;;4.10;;
47337;SDS011;33069;51.970;5.892;2023-04-03T08:23:37;8.40;;;5.47;;
47337;SDS011;33069;51.970;5.892;2023-04-03T08:26:13;8.98;;;4.45;;
47337;SDS011;33069;51.970;5.892;2023-04-03T08:28:41;7.82;;;4.20;;
47337;SDS011;33069;51.970;5.892;2023-04-03T08:31:08;5.35;;;4.72;;
47337;SDS011;33069;51.970;5.892;2023-04-03T08:33:37;8.70;;;4.93;;
47337;SDS011;33069;51.970;5.892;2023-04-03T08:36:04;6.82;;;4.93;;
47337;SDS011;33069;51.970;5.892;2023-04-03T08:38:41;6.60;;;4.43;;
47337;SDS011;33069;51.970;5.892;2023-04-03T08:41:11;5.53;;;4.25;;
47337;SDS011;33069;51.970;5.892;2023-04-03T08:47:23;7.53;;;5.28;;
47337;SDS011;33069;51.970;5.892;2023-04-03T08:55:10;5.50;;;4.53;;
47337;SDS011;33069;51.970;5.892;2023-04-03T08:57:45;5.97;;;3.90;;
47337;SDS011;33069;51.970;5.892;2023-04-03T09:02:48;4.97;;;3.83;;
47337;SDS011;33069;51.970;5.892;2023-04-03T09:05:17;4.22;;;3.63;;
47337;SDS011;33069;51.970;5.892;2023-04-03T09:07:46;4.50;;;3.70;;
47337;SDS011;33069;51.970;5.892;2023-04-03T09:10:22;7.28;;;3.60;;
47337;SDS011;33069;51.970;5.892;2023-04-03T09:13:04;6.38;;;4.03;;
47337;SDS011;33069;51.970;5.892;2023-04-03T09:15:36;5.10;;;4.28;;
47337;SDS011;33069;51.970;5.892;2023-04-03T09:18:06;7.18;;;5.57;;
47337;SDS011;33069;51.970;5.892;2023-04-03T09:23:32;3.42;;;3.10;;
47337;SDS011;33069;51.970;5.892;2023-04-03T09:26:08;3.78;;;3.40;;
47337;SDS011;33069;51.970;5.892;2023-04-03T09:28:39;4.95;;;3.40;;
47337;SDS011;33069;51.970;5.892;2023-04-03T09:31:26;4.28;;;3.70;;
47337;SDS011;33069;51.970;5.892;2023-04-03T09:34:01;4.00;;;3.70;;
47337;SDS011;33069;51.970;5.892;2023-04-03T09:36:44;6.20;;;4.00;;
47337;SDS011;33069;51.970;5.892;2023-04-03T09:42:22;4.55;;;3.70;;
47337;SDS011;33069;51.970;5.892;2023-04-03T09:44:54;3.93;;;3.60;;
47337;SDS011;33069;51.970;5.892;2023-04-03T09:47:25;3.90;;;3.55;;
47337;SDS011;33069;51.970;5.892;2023-04-03T09:53:25;4.05;;;3.75;;
47337;SDS011;33069;51.970;5.892;2023-04-03T09:56:01;3.63;;;3.33;;
47337;SDS011;33069;51.970;5.892;2023-04-03T09:58:38;3.88;;;3.58;;
47337;SDS011;33069;51.970;5.892;2023-04-03T10:01:20;4.20;;;3.80;;
47337;SDS011;33069;51.970;5.892;2023-04-03T10:06:38;4.65;;;4.03;;
47337;SDS011;33069;51.970;5.892;2023-04-03T10:15:11;4.38;;;3.90;;
47337;SDS011;33069;51.970;5.892;2023-04-03T10:25:37;5.82;;;3.70;;
47337;SDS011;33069;51.970;5.892;2023-04-03T10:28:17;4.22;;;3.83;;
47337;SDS011;33069;51.970;5.892;2023-04-03T10:39:17;7.00;;;3.60;;
47337;SDS011;33069;51.970;5.892;2023-04-03T10:42:08;5.50;;;4.00;;
47337;SDS011;33069;51.970;5.892;2023-04-03T10:45:01;4.00;;;3.70;;
47337;SDS011;33069;51.970;5.892;2023-04-03T10:55:44;4.78;;;4.20;;
47337;SDS011;33069;51.970;5.892;2023-04-03T10:58:27;4.05;;;3.67;;
47337;SDS011;33069;51.970;5.892;2023-04-03T11:01:07;4.32;;;3.70;;
47337;SDS011;33069;51.970;5.892;2023-04-03T11:03:47;5.68;;;3.78;;
47337;SDS011;33069;51.970;5.892;2023-04-03T11:06:18;4.90;;;4.20;;
47337;SDS011;33069;51.970;5.892;2023-04-03T11:08:50;4.53;;;3.42;;
47337;SDS011;33069;51.970;5.892;2023-04-03T11:11:31;8.05;;;4.03;;
47337;SDS011;33069;51.970;5.892;2023-04-03T11:17:33;5.55;;;3.70;;
47337;SDS011;33069;51.970;5.892;2023-04-03T11:20:17;5.07;;;4.57;;
47337;SDS011;33069;51.970;5.892;2023-04-03T11:25:32;5.25;;;4.15;;
47337;SDS011;33069;51.970;5.892;2023-04-03T11:28:04;7.90;;;4.47;;
47337;SDS011;33069;51.970;5.892;2023-04-03T11:31:06;5.05;;;4.28;;
47337;SDS011;33069;51.970;5.892;2023-04-03T11:33:52;4.82;;;3.80;;
47337;SDS011;33069;51.970;5.892;2023-04-03T11:36:31;4.57;;;4.22;;
47337;SDS011;33069;51.970;5.892;2023-04-03T11:39:18;4.57;;;4.18;;
47337;SDS011;33069;51.970;5.892;2023-04-03T11:44:41;6.65;;;3.60;;
47337;SDS011;33069;51.970;5.892;2023-04-03T11:47:10;6.40;;;4.50;;
47337;SDS011;33069;51.970;5.892;2023-04-03T11:52:56;4.20;;;3.90;;
47337;SDS011;33069;51.970;5.892;2023-04-03T12:16:28;4.28;;;3.88;;
47337;SDS011;33069;51.970;5.892;2023-04-03T12:24:35;5.80;;;4.60;;
47337;SDS011;33069;51.970;5.892;2023-04-03T12:27:09;4.30;;;4.00;;
47337;SDS011;33069;51.970;5.892;2023-04-03T12:29:37;4.88;;;4.32;;
47337;SDS011;33069;51.970;5.892;2023-04-03T12:32:12;4.45;;;4.05;;
47337;SDS011;33069;51.970;5.892;2023-04-03T12:41:11;5.57;;;4.57;;
47337;SDS011;33069;51.970;5.892;2023-04-03T12:43:34;6.15;;;4.65;;
47337;SDS011;33069;51.970;5.892;2023-04-03T12:46:19;5.13;;;4.60;;
47337;SDS011;33069;51.970;5.892;2023-04-03T12:48:49;4.95;;;4.47;;
47337;SDS011;33069;51.970;5.892;2023-04-03T12:51:21;5.03;;;4.47;;
47337;SDS011;33069;51.970;5.892;2023-04-03T12:54:15;5.78;;;4.72;;
47337;SDS011;33069;51.970;5.892;2023-04-03T12:56:44;9.13;;;5.38;;
47337;SDS011;33069;51.970;5.892;2023-04-03T13:04:22;5.13;;;4.18;;
47337;SDS011;33069;51.970;5.892;2023-04-03T13:06:48;5.30;;;4.72;;
47337;SDS011;33069;51.970;5.892;2023-04-03T13:09:25;7.88;;;5.00;;
47337;SDS011;33069;51.970;5.892;2023-04-03T13:14:38;5.57;;;5.10;;
47337;SDS011;33069;51.970;5.892;2023-04-03T13:19:39;5.10;;;4.57;;
47337;SDS011;33069;51.970;5.892;2023-04-03T13:24:58;5.10;;;4.70;;
47337;SDS011;33069;51.970;5.892;2023-04-03T13:27:26;5.25;;;4.68;;
47337;SDS011;33069;51.970;5.892;2023-04-03T13:29:53;5.55;;;4.72;;
47337;SDS011;33069;51.970;5.892;2023-04-03T13:32:22;6.38;;;5.40;;
47337;SDS011;33069;51.970;5.892;2023-04-03T13:34:50;9.48;;;5.10;;
47337;SDS011;33069;51.970;5.892;2023-04-03T13:37:30;6.35;;;5.10;;
47337;SDS011;33069;51.970;5.892;2023-04-03T13:40:15;6.03;;;5.43;;
47337;SDS011;33069;51.970;5.892;2023-04-03T13:42:41;6.25;;;5.50;;
47337;SDS011;33069;51.970;5.892;2023-04-03T13:47:46;6.97;;;4.93;;
47337;SDS011;33069;51.970;5.892;2023-04-03T13:50:20;5.63;;;5.18;;
47337;SDS011;33069;51.970;5.892;2023-04-03T13:52:54;7.40;;;5.50;;
47337;SDS011;33069;51.970;5.892;2023-04-03T13:57:55;6.13;;;5.50;;
47337;SDS011;33069;51.970;5.892;2023-04-03T14:05:45;9.35;;;6.40;;
47337;SDS011;33069;51.970;5.892;2023-04-03T14:08:11;6.35;;;5.70;;
47337;SDS011;33069;51.970;5.892;2023-04-03T14:10:37;6.45;;;5.82;;
47337;SDS011;33069;51.970;5.892;2023-04-03T14:13:03;7.05;;;6.15;;
47337;SDS011;33069;51.970;5.892;2023-04-03T14:15:30;7.45;;;6.03;;
47337;SDS011;33069;51.970;5.892;2023-04-03T14:17:57;5.78;;;5.30;;
47337;SDS011;33069;51.970;5.892;2023-04-03T14:20:24;6.68;;;6.07;;
47337;SDS011;33069;51.970;5.892;2023-04-03T14:22:51;7.15;;;6.20;;
47337;SDS011;33069;51.970;5.892;2023-04-03T14:25:19;7.50;;;6.25;;
47337;SDS011;33069;51.970;5.892;2023-04-03T14:27:46;7.72;;;5.55;;
47337;SDS011;33069;51.970;5.892;2023-04-03T14:30:25;6.05;;;5.18;;
47337;SDS011;33069;51.970;5.892;2023-04-03T14:32:53;7.78;;;4.60;;
47337;SDS011;33069;51.970;5.892;2023-04-03T14:35:20;6.03;;;5.47;;
47337;SDS011;33069;51.970;5.892;2023-04-03T14:37:46;6.38;;;5.65;;
47337;SDS011;33069;51.970;5.892;2023-04-03T14:40:15;6.20;;;5.60;;
47337;SDS011;33069;51.970;5.892;2023-04-03T14:42:44;5.85;;;5.35;;
47337;SDS011;33069;51.970;5.892;2023-04-03T14:45:11;7.10;;;6.30;;
47337;SDS011;33069;51.970;5.892;2023-04-03T14:47:44;5.93;;;5.32;;
47337;SDS011;33069;51.970;5.892;2023-04-03T14:50:14;8.32;;;5.47;;
47337;SDS011;33069;51.970;5.892;2023-04-03T14:52:49;10.88;;;7.32;;
47337;SDS011;33069;51.970;5.892;2023-04-03T14:55:17;9.60;;;8.80;;
47337;SDS011;33069;51.970;5.892;2023-04-03T14:57:45;10.18;;;9.30;;
47337;SDS011;33069;51.970;5.892;2023-04-03T15:03:01;10.18;;;9.38;;
47337;SDS011;33069;51.970;5.892;2023-04-03T15:05:27;10.70;;;9.73;;
47337;SDS011;33069;51.970;5.892;2023-04-03T15:07:54;10.88;;;10.07;;
47337;SDS011;33069;51.970;5.892;2023-04-03T15:10:25;11.27;;;10.27;;
47337;SDS011;33069;51.970;5.892;2023-04-03T15:12:53;10.15;;;9.35;;
47337;SDS011;33069;51.970;5.892;2023-04-03T15:15:20;10.50;;;9.30;;
47337;SDS011;33069;51.970;5.892;2023-04-03T15:17:49;10.50;;;9.57;;
47337;SDS011;33069;51.970;5.892;2023-04-03T15:20:20;11.10;;;10.20;;
47337;SDS011;33069;51.970;5.892;2023-04-03T15:22:47;11.10;;;10.20;;
47337;SDS011;33069;51.970;5.892;2023-04-03T15:25:13;11.15;;;10.15;;
47337;SDS011;33069;51.970;5.892;2023-04-03T15:27:40;11.40;;;10.30;;
47337;SDS011;33069;51.970;5.892;2023-04-03T15:30:08;11.43;;;10.45;;
47337;SDS011;33069;51.970;5.892;2023-04-03T15:32:38;10.40;;;9.40;;
47337;SDS011;33069;51.970;5.892;2023-04-03T15:35:03;10.75;;;9.95;;
47337;SDS011;33069;51.970;5.892;2023-04-03T15:37:30;11.80;;;10.77;;
47337;SDS011;33069;51.970;5.892;2023-04-03T15:39:56;9.52;;;8.95;;
47337;SDS011;33069;51.970;5.892;2023-04-03T15:42:21;9.95;;;9.00;;
47337;SDS011;33069;51.970;5.892;2023-04-03T15:44:47;10.05;;;9.02;;
47337;SDS011;33069;51.970;5.892;2023-04-03T15:47:13;9.52;;;8.82;;
47337;SDS011;33069;51.970;5.892;2023-04-03T15:49:38;10.57;;;9.57;;
47337;SDS011;33069;51.970;5.892;2023-04-03T15:52:04;9.63;;;8.88;;
47337;SDS011;33069;51.970;5.892;2023-04-03T15:54:30;10.02;;;9.23;;
47337;SDS011;33069;51.970;5.892;2023-04-03T15:56:56;10.80;;;9.75;;
47337;SDS011;33069;51.970;5.892;2023-04-03T15:59:22;10.30;;;9.40;;
47337;SDS011;33069;51.970;5.892;2023-04-03T16:01:48;8.70;;;7.90;;
47337;SDS011;33069;51.970;5.892;2023-04-03T16:04:15;9.25;;;8.30;;
47337;SDS011;33069;51.970;5.892;2023-04-03T16:06:41;9.23;;;8.43;;
47337;SDS011;33069;51.970;5.892;2023-04-03T16:09:07;9.98;;;8.90;;
47337;SDS011;33069;51.970;5.892;2023-04-03T16:11:33;9.45;;;8.65;;
47337;SDS011;33069;51.970;5.892;2023-04-03T16:14:01;10.60;;;9.50;;
47337;SDS011;33069;51.970;5.892;2023-04-03T16:16:26;10.65;;;9.65;;
47337;SDS011;33069;51.970;5.892;2023-04-03T16:18:53;9.88;;;8.93;;
47337;SDS011;33069;51.970;5.892;2023-04-03T16:21:20;9.48;;;8.68;;
47337;SDS011;33069;51.970;5.892;2023-04-03T16:23:47;9.70;;;9.00;;
47337;SDS011;33069;51.970;5.892;2023-04-03T16:26:13;9.63;;;8.93;;
47337;SDS011;33069;51.970;5.892;2023-04-03T16:28:39;12.05;;;8.90;;
47337;SDS011;33069;51.970;5.892;2023-04-03T16:31:05;10.85;;;9.50;;
47337;SDS011;33069;51.970;5.892;2023-04-03T16:33:50;10.25;;;9.30;;
47337;SDS011;33069;51.970;5.892;2023-04-03T16:36:16;10.48;;;9.10;;
47337;SDS011;33069;51.970;5.892;2023-04-03T16:38:41;9.43;;;8.60;;
47337;SDS011;33069;51.970;5.892;2023-04-03T16:41:07;8.80;;;7.80;;
47337;SDS011;33069;51.970;5.892;2023-04-03T16:43:33;7.85;;;7.07;;
47337;SDS011;33069;51.970;5.892;2023-04-03T16:46:00;8.40;;;7.70;;
47337;SDS011;33069;51.970;5.892;2023-04-03T16:48:27;8.32;;;7.20;;
47337;SDS011;33069;51.970;5.892;2023-04-03T16:50:54;8.38;;;7.50;;
47337;SDS011;33069;51.970;5.892;2023-04-03T16:53:20;8.73;;;8.02;;
47337;SDS011;33069;51.970;5.892;2023-04-03T16:55:46;8.90;;;8.07;;
47337;SDS011;33069;51.970;5.892;2023-04-03T16:58:12;9.20;;;8.40;;
47337;SDS011;33069;51.970;5.892;2023-04-03T17:00:39;10.55;;;8.95;;
47337;SDS011;33069;51.970;5.892;2023-04-03T17:03:05;8.18;;;7.55;;
47337;SDS011;33069;51.970;5.892;2023-04-03T17:05:31;9.02;;;7.60;;
47337;SDS011;33069;51.970;5.892;2023-04-03T17:07:57;9.52;;;8.40;;
47337;SDS011;33069;51.970;5.892;2023-04-03T17:10:23;9.00;;;8.20;;
47337;SDS011;33069;51.970;5.892;2023-04-03T17:12:49;8.30;;;7.60;;
47337;SDS011;33069;51.970;5.892;2023-04-03T17:15:15;7.85;;;7.03;;
47337;SDS011;33069;51.970;5.892;2023-04-03T17:17:41;8.60;;;7.90;;
47337;SDS011;33069;51.970;5.892;2023-04-03T17:20:07;8.80;;;8.00;;
47337;SDS011;33069;51.970;5.892;2023-04-03T17:22:33;8.55;;;7.70;;
47337;SDS011;33069;51.970;5.892;2023-04-03T17:24:59;8.15;;;7.43;;
47337;SDS011;33069;51.970;5.892;2023-04-03T17:27:25;9.63;;;8.73;;